sensor_id;sensor_type;location;lat;lon;timestamp;P1;durP1;ratioP1;P2;durP2;ratioP2
21798;SDS011;24973;47.178;15.316;2023-06-26T00:02:10;11.87;;;9.77;;
21798;SDS011;24973;47.178;15.316;2023-06-26T00:05:01;14.00;;;9.87;;
21798;SDS011;24973;47.178;15.316;2023-06-26T00:07:50;13.67;;;9.37;;
21798;SDS011;24973;47.178;15.316;2023-06-26T00:10:38;14.07;;;11.23;;
21798;SDS011;24973;47.178;15.316;2023-06-26T00:13:27;14.70;;;9.70;;
21798;SDS011;24973;47.178;15.316;2023-06-26T00:16:16;12.17;;;10.73;;
21798;SDS011;24973;47.178;15.316;2023-06-26T00:19:05;11.20;;;9.13;;
21798;SDS011;24973;47.178;15.316;2023-06-26T00:21:56;15.30;;;10.60;;
21798;SDS011;24973;47.178;15.316;2023-06-26T00:24:45;10.60;;;9.03;;
21798;SDS011;24973;47.178;15.316;2023-06-26T00:27:33;16.37;;;9.77;;
21798;SDS011;24973;47.178;15.316;2023-06-26T00:30:22;12.73;;;10.00;;
21798;SDS011;24973;47.178;15.316;2023-06-26T00:33:11;15.17;;;10.17;;
21798;SDS011;24973;47.178;15.316;2023-06-26T00:36:00;14.47;;;10.40;;
21798;SDS011;24973;47.178;15.316;2023-06-26T00:38:50;12.43;;;9.93;;
21798;SDS011;24973;47.178;15.316;2023-06-26T00:41:39;13.03;;;10.47;;
21798;SDS011;24973;47.178;15.316;2023-06-26T00:44:27;11.57;;;9.70;;
21798;SDS011;24973;47.178;15.316;2023-06-26T00:47:16;15.83;;;10.07;;
21798;SDS011;24973;47.178;15.316;2023-06-26T00:50:05;11.50;;;8.73;;
21798;SDS011;24973;47.178;15.316;2023-06-26T00:52:55;15.07;;;9.47;;
21798;SDS011;24973;47.178;15.316;2023-06-26T00:55:48;13.03;;;9.63;;
21798;SDS011;24973;47.178;15.316;2023-06-26T00:58:37;11.53;;;9.87;;
21798;SDS011;24973;47.178;15.316;2023-06-26T01:01:25;10.20;;;9.10;;
21798;SDS011;24973;47.178;15.316;2023-06-26T01:04:14;12.60;;;9.60;;
21798;SDS011;24973;47.178;15.316;2023-06-26T01:07:05;12.83;;;9.53;;
21798;SDS011;24973;47.178;15.316;2023-06-26T01:09:54;14.53;;;9.53;;
21798;SDS011;24973;47.178;15.316;2023-06-26T01:12:45;10.97;;;9.40;;
21798;SDS011;24973;47.178;15.316;2023-06-26T01:15:34;13.93;;;8.77;;
21798;SDS011;24973;47.178;15.316;2023-06-26T01:18:23;12.80;;;10.10;;
21798;SDS011;24973;47.178;15.316;2023-06-26T01:21:13;10.07;;;8.63;;
21798;SDS011;24973;47.178;15.316;2023-06-26T01:24:05;12.73;;;10.00;;
21798;SDS011;24973;47.178;15.316;2023-06-26T01:27:08;11.93;;;9.90;;
21798;SDS011;24973;47.178;15.316;2023-06-26T01:29:58;11.13;;;9.77;;
21798;SDS011;24973;47.178;15.316;2023-06-26T01:32:51;13.23;;;10.27;;
21798;SDS011;24973;47.178;15.316;2023-06-26T01:35:40;13.30;;;9.67;;
21798;SDS011;24973;47.178;15.316;2023-06-26T01:38:29;15.23;;;10.67;;
21798;SDS011;24973;47.178;15.316;2023-06-26T01:41:18;12.30;;;10.50;;
21798;SDS011;24973;47.178;15.316;2023-06-26T01:44:11;12.80;;;10.50;;
21798;SDS011;24973;47.178;15.316;2023-06-26T01:47:12;11.50;;;9.87;;
21798;SDS011;24973;47.178;15.316;2023-06-26T01:50:09;18.80;;;11.33;;
21798;SDS011;24973;47.178;15.316;2023-06-26T01:53:04;17.37;;;10.80;;
21798;SDS011;24973;47.178;15.316;2023-06-26T01:55:59;13.07;;;10.00;;
21798;SDS011;24973;47.178;15.316;2023-06-26T01:58:54;12.57;;;10.27;;
21798;SDS011;24973;47.178;15.316;2023-06-26T02:01:46;12.97;;;10.80;;
21798;SDS011;24973;47.178;15.316;2023-06-26T02:04:35;11.97;;;9.13;;
21798;SDS011;24973;47.178;15.316;2023-06-26T02:07:24;15.37;;;9.77;;
21798;SDS011;24973;47.178;15.316;2023-06-26T02:10:12;13.67;;;9.53;;
21798;SDS011;24973;47.178;15.316;2023-06-26T02:13:01;11.40;;;8.97;;
21798;SDS011;24973;47.178;15.316;2023-06-26T02:15:50;16.83;;;9.63;;
21798;SDS011;24973;47.178;15.316;2023-06-26T02:18:40;14.53;;;10.77;;
21798;SDS011;24973;47.178;15.316;2023-06-26T02:21:29;11.80;;;9.83;;
21798;SDS011;24973;47.178;15.316;2023-06-26T02:24:18;12.77;;;9.43;;
21798;SDS011;24973;47.178;15.316;2023-06-26T02:27:07;11.40;;;9.77;;
21798;SDS011;24973;47.178;15.316;2023-06-26T02:29:56;10.93;;;9.17;;
21798;SDS011;24973;47.178;15.316;2023-06-26T02:32:44;12.03;;;9.93;;
21798;SDS011;24973;47.178;15.316;2023-06-26T02:35:35;15.90;;;10.50;;
21798;SDS011;24973;47.178;15.316;2023-06-26T02:38:23;11.33;;;9.50;;
21798;SDS011;24973;47.178;15.316;2023-06-26T02:41:12;18.27;;;9.70;;
21798;SDS011;24973;47.178;15.316;2023-06-26T02:44:01;12.67;;;9.83;;
21798;SDS011;24973;47.178;15.316;2023-06-26T02:46:50;12.63;;;9.77;;
21798;SDS011;24973;47.178;15.316;2023-06-26T02:49:39;11.60;;;9.27;;
21798;SDS011;24973;47.178;15.316;2023-06-26T02:52:29;12.20;;;9.63;;
21798;SDS011;24973;47.178;15.316;2023-06-26T02:55:18;12.77;;;10.20;;
21798;SDS011;24973;47.178;15.316;2023-06-26T02:58:08;10.27;;;9.20;;
21798;SDS011;24973;47.178;15.316;2023-06-26T03:00:57;13.70;;;10.10;;
21798;SDS011;24973;47.178;15.316;2023-06-26T03:03:46;11.93;;;10.10;;
21798;SDS011;24973;47.178;15.316;2023-06-26T03:06:35;15.47;;;10.70;;
21798;SDS011;24973;47.178;15.316;2023-06-26T03:09:25;11.23;;;9.43;;
21798;SDS011;24973;47.178;15.316;2023-06-26T03:12:13;11.40;;;10.03;;
21798;SDS011;24973;47.178;15.316;2023-06-26T03:15:02;16.17;;;10.27;;
21798;SDS011;24973;47.178;15.316;2023-06-26T03:17:52;12.93;;;10.97;;
21798;SDS011;24973;47.178;15.316;2023-06-26T03:20:40;14.83;;;10.57;;
21798;SDS011;24973;47.178;15.316;2023-06-26T03:23:29;12.43;;;10.20;;
21798;SDS011;24973;47.178;15.316;2023-06-26T03:26:19;14.07;;;10.40;;
21798;SDS011;24973;47.178;15.316;2023-06-26T03:29:15;11.23;;;9.73;;
21798;SDS011;24973;47.178;15.316;2023-06-26T03:32:04;14.37;;;11.37;;
21798;SDS011;24973;47.178;15.316;2023-06-26T03:34:53;17.60;;;10.87;;
21798;SDS011;24973;47.178;15.316;2023-06-26T03:37:43;14.47;;;11.43;;
21798;SDS011;24973;47.178;15.316;2023-06-26T03:40:32;11.00;;;9.97;;
21798;SDS011;24973;47.178;15.316;2023-06-26T03:43:22;13.07;;;10.57;;
21798;SDS011;24973;47.178;15.316;2023-06-26T03:46:11;13.30;;;10.13;;
21798;SDS011;24973;47.178;15.316;2023-06-26T03:49:00;14.37;;;10.70;;
21798;SDS011;24973;47.178;15.316;2023-06-26T03:51:50;13.20;;;9.87;;
21798;SDS011;24973;47.178;15.316;2023-06-26T03:54:39;18.97;;;10.90;;
21798;SDS011;24973;47.178;15.316;2023-06-26T03:57:28;13.13;;;9.87;;
21798;SDS011;24973;47.178;15.316;2023-06-26T04:00:18;11.87;;;10.40;;
21798;SDS011;24973;47.178;15.316;2023-06-26T04:03:07;16.53;;;10.33;;
21798;SDS011;24973;47.178;15.316;2023-06-26T04:05:57;11.70;;;10.40;;
21798;SDS011;24973;47.178;15.316;2023-06-26T04:08:46;13.60;;;10.87;;
21798;SDS011;24973;47.178;15.316;2023-06-26T04:11:36;14.27;;;10.83;;
21798;SDS011;24973;47.178;15.316;2023-06-26T04:14:25;14.87;;;11.47;;
21798;SDS011;24973;47.178;15.316;2023-06-26T04:17:15;16.37;;;11.77;;
21798;SDS011;24973;47.178;15.316;2023-06-26T04:20:05;13.37;;;9.87;;
21798;SDS011;24973;47.178;15.316;2023-06-26T04:22:55;13.10;;;11.03;;
21798;SDS011;24973;47.178;15.316;2023-06-26T04:25:44;14.23;;;11.03;;
21798;SDS011;24973;47.178;15.316;2023-06-26T04:28:33;11.43;;;9.70;;
21798;SDS011;24973;47.178;15.316;2023-06-26T04:31:23;13.50;;;11.37;;
21798;SDS011;24973;47.178;15.316;2023-06-26T04:34:14;12.07;;;9.87;;
21798;SDS011;24973;47.178;15.316;2023-06-26T04:37:03;16.40;;;11.30;;
21798;SDS011;24973;47.178;15.316;2023-06-26T04:39:52;14.37;;;11.70;;
21798;SDS011;24973;47.178;15.316;2023-06-26T04:42:41;13.63;;;10.83;;
21798;SDS011;24973;47.178;15.316;2023-06-26T04:45:30;12.80;;;10.23;;
21798;SDS011;24973;47.178;15.316;2023-06-26T04:48:19;15.40;;;12.53;;
21798;SDS011;24973;47.178;15.316;2023-06-26T04:51:09;14.87;;;11.10;;
21798;SDS011;24973;47.178;15.316;2023-06-26T04:53:58;17.57;;;12.53;;
21798;SDS011;24973;47.178;15.316;2023-06-26T04:56:48;16.60;;;11.23;;
21798;SDS011;24973;47.178;15.316;2023-06-26T04:59:37;13.23;;;11.13;;
21798;SDS011;24973;47.178;15.316;2023-06-26T05:02:26;15.23;;;12.07;;
21798;SDS011;24973;47.178;15.316;2023-06-26T05:05:16;14.60;;;10.27;;
21798;SDS011;24973;47.178;15.316;2023-06-26T05:08:16;13.80;;;11.70;;
21798;SDS011;24973;47.178;15.316;2023-06-26T05:11:05;11.97;;;9.47;;
21798;SDS011;24973;47.178;15.316;2023-06-26T05:13:54;12.03;;;9.47;;
21798;SDS011;24973;47.178;15.316;2023-06-26T05:16:43;14.03;;;10.37;;
21798;SDS011;24973;47.178;15.316;2023-06-26T05:19:32;12.33;;;9.80;;
21798;SDS011;24973;47.178;15.316;2023-06-26T05:22:21;13.50;;;11.30;;
21798;SDS011;24973;47.178;15.316;2023-06-26T05:25:12;14.23;;;9.87;;
21798;SDS011;24973;47.178;15.316;2023-06-26T05:28:02;14.97;;;10.47;;
21798;SDS011;24973;47.178;15.316;2023-06-26T05:30:52;15.03;;;10.37;;
21798;SDS011;24973;47.178;15.316;2023-06-26T05:33:42;15.07;;;9.60;;
21798;SDS011;24973;47.178;15.316;2023-06-26T05:36:32;12.77;;;10.33;;
21798;SDS011;24973;47.178;15.316;2023-06-26T05:39:22;16.27;;;10.37;;
21798;SDS011;24973;47.178;15.316;2023-06-26T05:42:14;14.07;;;10.83;;
21798;SDS011;24973;47.178;15.316;2023-06-26T05:45:04;13.67;;;10.70;;
21798;SDS011;24973;47.178;15.316;2023-06-26T05:47:53;12.87;;;10.53;;
21798;SDS011;24973;47.178;15.316;2023-06-26T05:50:42;16.57;;;10.77;;
21798;SDS011;24973;47.178;15.316;2023-06-26T05:53:32;15.60;;;10.87;;
21798;SDS011;24973;47.178;15.316;2023-06-26T05:56:22;16.47;;;11.03;;
21798;SDS011;24973;47.178;15.316;2023-06-26T05:59:13;14.30;;;10.57;;
21798;SDS011;24973;47.178;15.316;2023-06-26T06:02:03;15.77;;;9.37;;
21798;SDS011;24973;47.178;15.316;2023-06-26T06:04:52;11.27;;;9.60;;
21798;SDS011;24973;47.178;15.316;2023-06-26T06:07:41;17.87;;;10.03;;
21798;SDS011;24973;47.178;15.316;2023-06-26T06:10:30;13.50;;;9.97;;
21798;SDS011;24973;47.178;15.316;2023-06-26T06:13:19;15.33;;;11.00;;
21798;SDS011;24973;47.178;15.316;2023-06-26T06:16:10;12.70;;;9.63;;
21798;SDS011;24973;47.178;15.316;2023-06-26T06:18:59;12.20;;;9.50;;
21798;SDS011;24973;47.178;15.316;2023-06-26T06:21:50;11.43;;;9.60;;
21798;SDS011;24973;47.178;15.316;2023-06-26T06:24:39;15.80;;;9.70;;
21798;SDS011;24973;47.178;15.316;2023-06-26T06:27:28;11.93;;;9.40;;
21798;SDS011;24973;47.178;15.316;2023-06-26T06:30:18;15.13;;;9.97;;
21798;SDS011;24973;47.178;15.316;2023-06-26T06:33:13;10.53;;;8.53;;
21798;SDS011;24973;47.178;15.316;2023-06-26T06:36:02;11.27;;;9.53;;
21798;SDS011;24973;47.178;15.316;2023-06-26T06:38:52;13.27;;;10.17;;
21798;SDS011;24973;47.178;15.316;2023-06-26T06:41:41;10.77;;;9.03;;
21798;SDS011;24973;47.178;15.316;2023-06-26T06:44:30;10.50;;;9.03;;
21798;SDS011;24973;47.178;15.316;2023-06-26T06:47:20;12.97;;;8.90;;
21798;SDS011;24973;47.178;15.316;2023-06-26T06:50:10;16.20;;;10.33;;
21798;SDS011;24973;47.178;15.316;2023-06-26T06:53:00;11.57;;;9.40;;
21798;SDS011;24973;47.178;15.316;2023-06-26T06:55:52;14.77;;;9.50;;
21798;SDS011;24973;47.178;15.316;2023-06-26T06:58:43;10.63;;;9.10;;
21798;SDS011;24973;47.178;15.316;2023-06-26T07:01:33;13.87;;;9.30;;
21798;SDS011;24973;47.178;15.316;2023-06-26T07:04:22;12.67;;;8.87;;
21798;SDS011;24973;47.178;15.316;2023-06-26T07:07:13;11.90;;;8.80;;
21798;SDS011;24973;47.178;15.316;2023-06-26T07:10:06;9.70;;;8.33;;
21798;SDS011;24973;47.178;15.316;2023-06-26T07:12:57;9.77;;;8.07;;
21798;SDS011;24973;47.178;15.316;2023-06-26T07:15:54;11.70;;;8.10;;
21798;SDS011;24973;47.178;15.316;2023-06-26T07:18:43;10.10;;;7.83;;
21798;SDS011;24973;47.178;15.316;2023-06-26T07:21:33;9.70;;;8.47;;
21798;SDS011;24973;47.178;15.316;2023-06-26T07:24:24;12.43;;;8.97;;
21798;SDS011;24973;47.178;15.316;2023-06-26T07:27:19;10.67;;;8.37;;
21798;SDS011;24973;47.178;15.316;2023-06-26T07:31:21;11.33;;;8.13;;
21798;SDS011;24973;47.178;15.316;2023-06-26T07:35:13;12.00;;;8.87;;
21798;SDS011;24973;47.178;15.316;2023-06-26T07:38:22;8.60;;;7.70;;
21798;SDS011;24973;47.178;15.316;2023-06-26T07:41:19;14.33;;;8.33;;
21798;SDS011;24973;47.178;15.316;2023-06-26T07:44:09;10.13;;;8.50;;
21798;SDS011;24973;47.178;15.316;2023-06-26T07:47:13;9.83;;;8.27;;
21798;SDS011;24973;47.178;15.316;2023-06-26T07:50:03;10.07;;;7.87;;
21798;SDS011;24973;47.178;15.316;2023-06-26T07:53:03;10.67;;;8.07;;
21798;SDS011;24973;47.178;15.316;2023-06-26T07:56:07;9.50;;;7.57;;
21798;SDS011;24973;47.178;15.316;2023-06-26T08:06:43;8.50;;;6.10;;
21798;SDS011;24973;47.178;15.316;2023-06-26T08:09:57;7.23;;;6.53;;
21798;SDS011;24973;47.178;15.316;2023-06-26T08:12:46;6.17;;;5.57;;
21798;SDS011;24973;47.178;15.316;2023-06-26T08:16:32;6.70;;;6.00;;
21798;SDS011;24973;47.178;15.316;2023-06-26T08:19:10;8.17;;;6.17;;
21798;SDS011;24973;47.178;15.316;2023-06-26T08:22:09;8.10;;;6.33;;
21798;SDS011;24973;47.178;15.316;2023-06-26T08:25:10;10.90;;;7.27;;
21798;SDS011;24973;47.178;15.316;2023-06-26T08:28:13;8.40;;;6.83;;
21798;SDS011;24973;47.178;15.316;2023-06-26T08:31:36;8.47;;;6.43;;
21798;SDS011;24973;47.178;15.316;2023-06-26T08:34:26;9.67;;;6.00;;
21798;SDS011;24973;47.178;15.316;2023-06-26T08:37:19;7.63;;;5.77;;
21798;SDS011;24973;47.178;15.316;2023-06-26T08:40:08;9.77;;;5.37;;
21798;SDS011;24973;47.178;15.316;2023-06-26T08:42:58;9.27;;;5.57;;
21798;SDS011;24973;47.178;15.316;2023-06-26T08:45:47;6.33;;;5.20;;
21798;SDS011;24973;47.178;15.316;2023-06-26T08:48:38;9.63;;;8.10;;
21798;SDS011;24973;47.178;15.316;2023-06-26T08:51:30;6.63;;;5.37;;
21798;SDS011;24973;47.178;15.316;2023-06-26T08:54:27;5.63;;;5.10;;
21798;SDS011;24973;47.178;15.316;2023-06-26T08:57:21;6.73;;;6.03;;
21798;SDS011;24973;47.178;15.316;2023-06-26T09:00:14;6.57;;;5.63;;
21798;SDS011;24973;47.178;15.316;2023-06-26T09:03:04;7.67;;;5.73;;
21798;SDS011;24973;47.178;15.316;2023-06-26T09:06:00;7.10;;;5.40;;
21798;SDS011;24973;47.178;15.316;2023-06-26T09:08:51;5.77;;;5.17;;
21798;SDS011;24973;47.178;15.316;2023-06-26T09:11:45;6.17;;;5.50;;
21798;SDS011;24973;47.178;15.316;2023-06-26T09:14:34;5.67;;;5.03;;
21798;SDS011;24973;47.178;15.316;2023-06-26T09:17:26;8.07;;;5.17;;
21798;SDS011;24973;47.178;15.316;2023-06-26T09:20:21;7.20;;;5.07;;
21798;SDS011;24973;47.178;15.316;2023-06-26T09:23:15;5.40;;;4.47;;
21798;SDS011;24973;47.178;15.316;2023-06-26T09:26:05;7.00;;;5.47;;
21798;SDS011;24973;47.178;15.316;2023-06-26T09:28:55;6.63;;;4.77;;
21798;SDS011;24973;47.178;15.316;2023-06-26T09:31:45;6.80;;;4.80;;
21798;SDS011;24973;47.178;15.316;2023-06-26T09:34:36;7.17;;;6.10;;
21798;SDS011;24973;47.178;15.316;2023-06-26T09:37:30;6.10;;;5.07;;
21798;SDS011;24973;47.178;15.316;2023-06-26T09:40:26;5.07;;;4.57;;
21798;SDS011;24973;47.178;15.316;2023-06-26T09:43:15;5.73;;;5.07;;
21798;SDS011;24973;47.178;15.316;2023-06-26T09:46:07;5.43;;;4.93;;
21798;SDS011;24973;47.178;15.316;2023-06-26T09:49:00;5.50;;;5.00;;
21798;SDS011;24973;47.178;15.316;2023-06-26T09:51:51;5.03;;;4.53;;
21798;SDS011;24973;47.178;15.316;2023-06-26T09:54:40;5.33;;;4.83;;
21798;SDS011;24973;47.178;15.316;2023-06-26T09:57:31;5.40;;;4.90;;
21798;SDS011;24973;47.178;15.316;2023-06-26T10:00:23;5.67;;;4.77;;
21798;SDS011;24973;47.178;15.316;2023-06-26T10:03:14;6.83;;;5.23;;
21798;SDS011;24973;47.178;15.316;2023-06-26T10:06:03;5.07;;;4.57;;
21798;SDS011;24973;47.178;15.316;2023-06-26T10:08:53;5.43;;;4.93;;
21798;SDS011;24973;47.178;15.316;2023-06-26T10:11:45;5.78;;;5.22;;
21798;SDS011;24973;47.178;15.316;2023-06-26T10:14:37;5.63;;;4.67;;
21798;SDS011;24973;47.178;15.316;2023-06-26T10:17:27;4.80;;;4.40;;
21798;SDS011;24973;47.178;15.316;2023-06-26T10:20:19;5.00;;;4.47;;
21798;SDS011;24973;47.178;15.316;2023-06-26T10:23:09;5.53;;;5.03;;
21798;SDS011;24973;47.178;15.316;2023-06-26T10:25:58;5.18;;;4.25;;
21798;SDS011;24973;47.178;15.316;2023-06-26T10:28:50;6.38;;;5.10;;
21798;SDS011;24973;47.178;15.316;2023-06-26T10:31:40;5.15;;;4.07;;
21798;SDS011;24973;47.178;15.316;2023-06-26T10:34:32;6.15;;;4.45;;
21798;SDS011;24973;47.178;15.316;2023-06-26T10:37:32;5.40;;;4.35;;
21798;SDS011;24973;47.178;15.316;2023-06-26T10:40:39;12.55;;;5.63;;
21798;SDS011;24973;47.178;15.316;2023-06-26T10:43:30;5.20;;;4.18;;
21798;SDS011;24973;47.178;15.316;2023-06-26T10:46:19;5.43;;;4.15;;
21798;SDS011;24973;47.178;15.316;2023-06-26T10:49:10;6.03;;;4.60;;
21798;SDS011;24973;47.178;15.316;2023-06-26T10:52:01;4.57;;;3.72;;
21798;SDS011;24973;47.178;15.316;2023-06-26T10:54:52;5.03;;;4.53;;
21798;SDS011;24973;47.178;15.316;2023-06-26T10:57:44;5.45;;;4.00;;
21798;SDS011;24973;47.178;15.316;2023-06-26T11:00:36;4.32;;;3.97;;
21798;SDS011;24973;47.178;15.316;2023-06-26T11:03:26;5.10;;;4.63;;
21798;SDS011;24973;47.178;15.316;2023-06-26T11:06:19;8.43;;;4.90;;
21798;SDS011;24973;47.178;15.316;2023-06-26T11:09:10;4.88;;;4.38;;
21798;SDS011;24973;47.178;15.316;2023-06-26T11:12:03;5.35;;;4.35;;
21798;SDS011;24973;47.178;15.316;2023-06-26T11:14:53;5.70;;;4.00;;
21798;SDS011;24973;47.178;15.316;2023-06-26T11:17:43;4.88;;;4.38;;
21798;SDS011;24973;47.178;15.316;2023-06-26T11:20:32;5.00;;;4.43;;
21798;SDS011;24973;47.178;15.316;2023-06-26T11:23:22;9.10;;;4.88;;
21798;SDS011;24973;47.178;15.316;2023-06-26T11:26:15;4.95;;;4.45;;
21798;SDS011;24973;47.178;15.316;2023-06-26T11:29:07;5.45;;;4.05;;
21798;SDS011;24973;47.178;15.316;2023-06-26T11:32:00;4.65;;;4.25;;
21798;SDS011;24973;47.178;15.316;2023-06-26T11:34:52;5.93;;;4.88;;
21798;SDS011;24973;47.178;15.316;2023-06-26T11:37:41;6.07;;;4.05;;
21798;SDS011;24973;47.178;15.316;2023-06-26T11:40:31;4.82;;;4.28;;
21798;SDS011;24973;47.178;15.316;2023-06-26T11:43:20;5.18;;;3.78;;
21798;SDS011;24973;47.178;15.316;2023-06-26T11:46:12;5.32;;;4.28;;
21798;SDS011;24973;47.178;15.316;2023-06-26T11:49:02;3.63;;;3.38;;
21798;SDS011;24973;47.178;15.316;2023-06-26T11:51:52;4.82;;;4.32;;
21798;SDS011;24973;47.178;15.316;2023-06-26T11:54:44;5.28;;;4.78;;
21798;SDS011;24973;47.178;15.316;2023-06-26T11:57:33;4.93;;;4.45;;
21798;SDS011;24973;47.178;15.316;2023-06-26T12:00:23;5.38;;;4.20;;
21798;SDS011;24973;47.178;15.316;2023-06-26T12:03:13;4.15;;;3.75;;
21798;SDS011;24973;47.178;15.316;2023-06-26T12:06:03;4.93;;;4.20;;
21798;SDS011;24973;47.178;15.316;2023-06-26T12:08:53;3.90;;;3.47;;
21798;SDS011;24973;47.178;15.316;2023-06-26T12:11:43;4.45;;;4.05;;
21798;SDS011;24973;47.178;15.316;2023-06-26T12:14:35;4.40;;;3.78;;
21798;SDS011;24973;47.178;15.316;2023-06-26T12:17:25;4.30;;;3.90;;
21798;SDS011;24973;47.178;15.316;2023-06-26T12:20:19;4.65;;;4.18;;
21798;SDS011;24973;47.178;15.316;2023-06-26T12:23:12;6.00;;;4.22;;
21798;SDS011;24973;47.178;15.316;2023-06-26T12:26:15;5.35;;;4.10;;
21798;SDS011;24973;47.178;15.316;2023-06-26T12:29:07;4.68;;;4.07;;
21798;SDS011;24973;47.178;15.316;2023-06-26T12:31:58;7.88;;;5.10;;
21798;SDS011;24973;47.178;15.316;2023-06-26T12:34:48;3.90;;;3.55;;
21798;SDS011;24973;47.178;15.316;2023-06-26T12:37:39;4.32;;;3.92;;
21798;SDS011;24973;47.178;15.316;2023-06-26T12:40:31;4.68;;;4.20;;
21798;SDS011;24973;47.178;15.316;2023-06-26T12:43:22;4.57;;;4.03;;
21798;SDS011;24973;47.178;15.316;2023-06-26T12:46:14;4.10;;;3.70;;
21798;SDS011;24973;47.178;15.316;2023-06-26T12:49:03;5.63;;;4.40;;
21798;SDS011;24973;47.178;15.316;2023-06-26T12:51:58;7.35;;;5.93;;
21798;SDS011;24973;47.178;15.316;2023-06-26T12:54:52;7.22;;;5.75;;
21798;SDS011;24973;47.178;15.316;2023-06-26T12:57:43;7.32;;;6.63;;
21798;SDS011;24973;47.178;15.316;2023-06-26T13:00:32;5.47;;;4.78;;
21798;SDS011;24973;47.178;15.316;2023-06-26T13:03:21;6.72;;;5.97;;
21798;SDS011;24973;47.178;15.316;2023-06-26T13:06:10;6.70;;;5.55;;
21798;SDS011;24973;47.178;15.316;2023-06-26T13:09:01;7.78;;;5.95;;
21798;SDS011;24973;47.178;15.316;2023-06-26T13:11:52;7.55;;;6.85;;
21798;SDS011;24973;47.178;15.316;2023-06-26T13:14:42;6.90;;;6.20;;
21798;SDS011;24973;47.178;15.316;2023-06-26T13:17:31;5.55;;;5.05;;
21798;SDS011;24973;47.178;15.316;2023-06-26T13:20:20;7.93;;;6.22;;
21798;SDS011;24973;47.178;15.316;2023-06-26T13:23:10;7.45;;;5.72;;
21798;SDS011;24973;47.178;15.316;2023-06-26T13:25:59;7.65;;;6.10;;
21798;SDS011;24973;47.178;15.316;2023-06-26T13:28:50;5.13;;;4.68;;
21798;SDS011;24973;47.178;15.316;2023-06-26T13:31:39;6.63;;;5.85;;
21798;SDS011;24973;47.178;15.316;2023-06-26T13:34:28;5.93;;;5.43;;
21798;SDS011;24973;47.178;15.316;2023-06-26T13:37:17;6.05;;;5.38;;
21798;SDS011;24973;47.178;15.316;2023-06-26T13:40:07;6.50;;;5.90;;
21798;SDS011;24973;47.178;15.316;2023-06-26T13:42:57;10.88;;;5.32;;
21798;SDS011;24973;47.178;15.316;2023-06-26T13:45:47;5.90;;;5.25;;
21798;SDS011;24973;47.178;15.316;2023-06-26T13:48:37;7.20;;;5.85;;
21798;SDS011;24973;47.178;15.316;2023-06-26T13:51:26;6.50;;;5.82;;
21798;SDS011;24973;47.178;15.316;2023-06-26T13:54:15;6.95;;;6.25;;
21798;SDS011;24973;47.178;15.316;2023-06-26T13:57:05;8.52;;;6.18;;
21798;SDS011;24973;47.178;15.316;2023-06-26T13:59:55;6.53;;;5.57;;
21798;SDS011;24973;47.178;15.316;2023-06-26T14:02:46;5.70;;;5.20;;
21798;SDS011;24973;47.178;15.316;2023-06-26T14:05:36;6.75;;;5.97;;
21798;SDS011;24973;47.178;15.316;2023-06-26T14:08:27;6.28;;;5.72;;
21798;SDS011;24973;47.178;15.316;2023-06-26T14:11:17;5.88;;;5.18;;
21798;SDS011;24973;47.178;15.316;2023-06-26T14:14:07;5.75;;;5.25;;
21798;SDS011;24973;47.178;15.316;2023-06-26T14:16:56;6.30;;;5.70;;
21798;SDS011;24973;47.178;15.316;2023-06-26T14:19:47;6.22;;;5.63;;
21798;SDS011;24973;47.178;15.316;2023-06-26T14:22:37;6.95;;;5.97;;
21798;SDS011;24973;47.178;15.316;2023-06-26T14:25:26;6.60;;;5.28;;
21798;SDS011;24973;47.178;15.316;2023-06-26T14:28:16;7.75;;;6.95;;
21798;SDS011;24973;47.178;15.316;2023-06-26T14:31:05;6.57;;;5.95;;
21798;SDS011;24973;47.178;15.316;2023-06-26T14:33:54;7.50;;;5.95;;
21798;SDS011;24973;47.178;15.316;2023-06-26T14:36:47;8.23;;;6.90;;
21798;SDS011;24973;47.178;15.316;2023-06-26T14:39:36;6.22;;;5.63;;
21798;SDS011;24973;47.178;15.316;2023-06-26T14:42:26;6.45;;;5.85;;
21798;SDS011;24973;47.178;15.316;2023-06-26T14:45:21;6.43;;;5.35;;
21798;SDS011;24973;47.178;15.316;2023-06-26T14:48:21;6.55;;;5.95;;
21798;SDS011;24973;47.178;15.316;2023-06-26T14:51:14;6.40;;;5.75;;
21798;SDS011;24973;47.178;15.316;2023-06-26T14:58:34;6.68;;;5.93;;
21798;SDS011;24973;47.178;15.316;2023-06-26T15:01:25;6.47;;;5.88;;
21798;SDS011;24973;47.178;15.316;2023-06-26T15:04:21;6.82;;;5.90;;
21798;SDS011;24973;47.178;15.316;2023-06-26T15:07:20;7.32;;;6.47;;
21798;SDS011;24973;47.178;15.316;2023-06-26T15:10:51;7.47;;;6.20;;
21798;SDS011;24973;47.178;15.316;2023-06-26T15:13:42;6.82;;;6.22;;
21798;SDS011;24973;47.178;15.316;2023-06-26T15:16:31;6.68;;;5.95;;
21798;SDS011;24973;47.178;15.316;2023-06-26T15:19:20;6.70;;;6.05;;
21798;SDS011;24973;47.178;15.316;2023-06-26T15:22:09;6.97;;;6.35;;
21798;SDS011;24973;47.178;15.316;2023-06-26T15:24:58;10.40;;;6.72;;
21798;SDS011;24973;47.178;15.316;2023-06-26T15:27:47;6.20;;;5.60;;
21798;SDS011;24973;47.178;15.316;2023-06-26T15:30:39;6.28;;;5.68;;
21798;SDS011;24973;47.178;15.316;2023-06-26T15:33:28;5.85;;;5.28;;
21798;SDS011;24973;47.178;15.316;2023-06-26T15:36:17;6.50;;;5.65;;
21798;SDS011;24973;47.178;15.316;2023-06-26T15:39:07;14.65;;;6.57;;
21798;SDS011;24973;47.178;15.316;2023-06-26T15:41:57;5.82;;;5.22;;
21798;SDS011;24973;47.178;15.316;2023-06-26T15:44:47;5.95;;;5.35;;
21798;SDS011;24973;47.178;15.316;2023-06-26T15:47:40;5.72;;;5.13;;
21798;SDS011;24973;47.178;15.316;2023-06-26T15:50:29;5.95;;;5.35;;
21798;SDS011;24973;47.178;15.316;2023-06-26T15:53:19;6.63;;;5.43;;
21798;SDS011;24973;47.178;15.316;2023-06-26T15:56:09;6.10;;;5.50;;
21798;SDS011;24973;47.178;15.316;2023-06-26T15:58:59;7.30;;;6.35;;
21798;SDS011;24973;47.178;15.316;2023-06-26T16:01:51;6.07;;;5.55;;
21798;SDS011;24973;47.178;15.316;2023-06-26T16:04:42;6.22;;;5.65;;
21798;SDS011;24973;47.178;15.316;2023-06-26T16:07:31;7.45;;;6.03;;
21798;SDS011;24973;47.178;15.316;2023-06-26T16:10:26;6.68;;;6.07;;
21798;SDS011;24973;47.178;15.316;2023-06-26T16:13:16;6.90;;;6.30;;
21798;SDS011;24973;47.178;15.316;2023-06-26T16:16:06;5.35;;;4.93;;
21798;SDS011;24973;47.178;15.316;2023-06-26T16:18:55;7.22;;;6.57;;
21798;SDS011;24973;47.178;15.316;2023-06-26T16:21:46;5.32;;;4.82;;
21798;SDS011;24973;47.178;15.316;2023-06-26T16:24:35;6.22;;;5.63;;
21798;SDS011;24973;47.178;15.316;2023-06-26T16:27:24;6.40;;;5.80;;
21798;SDS011;24973;47.178;15.316;2023-06-26T16:30:13;6.35;;;5.70;;
21798;SDS011;24973;47.178;15.316;2023-06-26T16:33:03;6.45;;;5.85;;
21798;SDS011;24973;47.178;15.316;2023-06-26T16:35:52;6.65;;;6.00;;
21798;SDS011;24973;47.178;15.316;2023-06-26T16:38:42;6.50;;;5.90;;
21798;SDS011;24973;47.178;15.316;2023-06-26T16:41:31;6.57;;;5.50;;
21798;SDS011;24973;47.178;15.316;2023-06-26T16:44:20;11.77;;;5.15;;
21798;SDS011;24973;47.178;15.316;2023-06-26T16:47:09;7.40;;;5.63;;
21798;SDS011;24973;47.178;15.316;2023-06-26T16:50:03;7.18;;;6.47;;
21798;SDS011;24973;47.178;15.316;2023-06-26T16:52:53;7.70;;;6.28;;
21798;SDS011;24973;47.178;15.316;2023-06-26T16:55:43;7.20;;;5.47;;
21798;SDS011;24973;47.178;15.316;2023-06-26T16:58:32;7.20;;;6.40;;
21798;SDS011;24973;47.178;15.316;2023-06-26T17:01:21;6.95;;;6.20;;